createdAt,value
2018-08-17T00:03:27.722Z,13.72
2018-08-17T00:08:20.991Z,14.45
2018-08-17T00:13:14.230Z,12.43
2018-08-17T00:18:07.569Z,11.33
2018-08-17T00:23:00.853Z,13.58
2018-08-17T00:27:54.095Z,13.03
2018-08-17T00:32:47.313Z,13.18
2018-08-17T00:37:40.587Z,13.88
2018-08-17T00:42:33.826Z,14.65
2018-08-17T00:47:27.157Z,18.35
2018-08-17T00:52:20.553Z,16.60
2018-08-17T00:57:13.794Z,14.38
2018-08-17T01:02:07.137Z,14.80
2018-08-17T01:07:00.404Z,15.53
2018-08-17T01:11:53.709Z,15.68
2018-08-17T01:16:47.010Z,16.55
2018-08-17T01:21:40.262Z,15.80
2018-08-17T01:26:33.558Z,16.02
2018-08-17T01:31:26.852Z,17.07
2018-08-17T01:36:20.122Z,16.37
2018-08-17T01:41:13.390Z,17.25
2018-08-17T01:46:06.694Z,16.17
2018-08-17T01:50:59.947Z,18.25
2018-08-17T01:55:53.188Z,25.27
2018-08-17T02:00:46.416Z,17.20
2018-08-17T02:05:39.720Z,16.00
2018-08-17T02:10:33.633Z,15.88
2018-08-17T02:15:26.860Z,17.90
2018-08-17T02:20:20.128Z,18.85
2018-08-17T02:25:13.365Z,21.20
2018-08-17T02:30:07.286Z,21.73
2018-08-17T02:35:00.561Z,21.63
2018-08-17T02:39:53.807Z,26.75
2018-08-17T02:44:47.084Z,28.13
2018-08-17T02:49:40.378Z,27.77
2018-08-17T02:54:33.690Z,26.62
2018-08-17T02:59:27.004Z,25.43
2018-08-17T03:04:20.231Z,25.70
2018-08-17T03:09:13.511Z,24.40
2018-08-17T03:14:07.160Z,24.25
2018-08-17T03:19:00.449Z,23.70
2018-08-17T03:23:53.731Z,24.30
2018-08-17T03:28:47.016Z,23.83
2018-08-17T03:33:40.289Z,23.32
2018-08-17T03:38:33.560Z,22.87
2018-08-17T03:43:26.877Z,21.23
2018-08-17T03:48:20.199Z,20.40
2018-08-17T03:53:13.461Z,18.42
2018-08-17T03:58:06.774Z,18.00
2018-08-17T04:03:00.089Z,17.45
2018-08-17T04:07:53.338Z,17.07
2018-08-17T04:12:46.661Z,14.90
2018-08-17T04:17:39.926Z,14.98
2018-08-17T04:22:33.350Z,14.05
2018-08-17T04:27:26.605Z,14.80
2018-08-17T04:32:19.862Z,11.90
2018-08-17T04:37:13.254Z,13.18
2018-08-17T04:42:06.606Z,13.30
2018-08-17T04:46:59.892Z,11.40
2018-08-17T04:51:53.200Z,14.40
2018-08-17T04:56:46.482Z,13.65
2018-08-17T05:01:39.678Z,12.90
2018-08-17T05:06:33.038Z,11.00
2018-08-17T05:11:26.298Z,9.38
2018-08-17T05:16:19.611Z,11.25
2018-08-17T05:21:12.878Z,8.88
2018-08-17T05:26:06.236Z,9.10
2018-08-17T05:30:59.586Z,11.33
2018-08-17T05:35:52.876Z,8.35
2018-08-17T05:40:46.182Z,8.38
2018-08-17T05:45:39.462Z,10.70
2018-08-17T05:50:33.560Z,6.72
2018-08-17T05:55:27.032Z,7.90
2018-08-17T06:00:20.382Z,6.83
2018-08-17T06:05:13.611Z,5.95
2018-08-17T06:10:08.828Z,8.18
2018-08-17T06:15:02.074Z,9.53
2018-08-17T06:19:55.317Z,9.33
2018-08-17T06:24:50.188Z,7.28
2018-08-17T06:29:43.773Z,5.17
2018-08-17T06:34:37.592Z,6.80
2018-08-17T06:39:30.845Z,8.08
2018-08-17T06:44:24.196Z,13.98
2018-08-17T06:49:17.470Z,6.45
2018-08-17T06:54:10.745Z,8.80
2018-08-17T06:59:04.035Z,7.33
2018-08-17T07:03:57.323Z,6.90
2018-08-17T07:08:50.643Z,8.35
2018-08-17T07:13:43.940Z,7.90
2018-08-17T07:18:37.207Z,8.10
2018-08-17T07:23:30.486Z,7.72
2018-08-17T07:28:23.798Z,6.92
2018-08-17T07:33:17.063Z,6.10
2018-08-17T07:38:10.370Z,7.70
2018-08-17T07:43:03.655Z,11.20
2018-08-17T07:47:57.057Z,8.83
2018-08-17T07:52:50.573Z,10.05
2018-08-17T07:57:44.839Z,7.95
2018-08-17T08:02:38.552Z,9.50
2018-08-17T08:07:32.772Z,6.65
2018-08-17T08:12:26.071Z,9.30
2018-08-17T08:17:19.353Z,10.10
2018-08-17T08:22:12.689Z,10.90
2018-08-17T08:27:07.382Z,9.25
2018-08-17T08:32:00.707Z,7.62
2018-08-17T08:36:54.009Z,8.28
2018-08-17T08:41:47.249Z,7.92
2018-08-17T08:46:40.501Z,9.83
2018-08-17T08:51:33.803Z,10.03
2018-08-17T08:56:27.091Z,7.62
2018-08-17T09:01:20.455Z,5.78
2018-08-17T09:06:13.745Z,3.83
2018-08-17T09:11:06.977Z,4.40
2018-08-17T09:16:00.247Z,3.60
2018-08-17T09:20:53.547Z,3.72
2018-08-17T09:25:46.861Z,4.95
2018-08-17T09:30:40.160Z,4.28
2018-08-17T09:35:33.443Z,6.57
2018-08-17T09:40:26.968Z,4.42
2018-08-17T09:45:20.313Z,5.35
2018-08-17T09:50:14.732Z,5.35
2018-08-17T09:55:08.010Z,7.20
2018-08-17T10:00:01.580Z,6.47
2018-08-17T10:05:00.516Z,6.00
2018-08-17T10:10:26.698Z,6.40
2018-08-17T10:15:21.122Z,5.45
2018-08-17T10:20:17.052Z,4.55
2018-08-17T10:25:14.393Z,4.70
2018-08-17T10:30:07.680Z,4.67
2018-08-17T10:35:02.447Z,3.55
2018-08-17T10:39:55.700Z,3.92
2018-08-17T10:44:48.978Z,4.95
2018-08-17T10:49:42.237Z,3.58
2018-08-17T10:54:35.494Z,3.33
2018-08-17T10:59:28.780Z,3.95
2018-08-17T11:04:22.060Z,3.27
2018-08-17T11:09:16.169Z,4.65
2018-08-17T11:14:09.467Z,4.72
2018-08-17T11:19:02.853Z,3.65
2018-08-17T11:23:56.427Z,4.75
2018-08-17T11:28:49.712Z,4.50
2018-08-17T11:33:43.076Z,5.55
2018-08-17T11:38:36.363Z,5.65
2018-08-17T11:43:29.632Z,5.50
2018-08-17T11:48:28.419Z,5.25
2018-08-17T11:53:21.720Z,5.50
2018-08-17T11:58:14.980Z,4.67
2018-08-17T12:03:08.836Z,4.72
2018-08-17T12:08:02.178Z,5.00
2018-08-17T12:13:02.701Z,5.53
2018-08-17T12:17:55.970Z,5.10
2018-08-17T12:22:49.241Z,5.47
2018-08-17T12:27:47.264Z,6.37
2018-08-17T12:32:40.572Z,7.10
2018-08-17T12:37:33.860Z,7.03
2018-08-17T12:42:27.111Z,8.00
2018-08-17T12:47:20.400Z,6.72
2018-08-17T12:52:13.704Z,6.55
2018-08-17T12:57:07.043Z,7.00
2018-08-17T13:02:00.330Z,7.62
2018-08-17T13:06:53.628Z,8.55
2018-08-17T13:11:52.593Z,8.13
2018-08-17T13:16:45.854Z,8.05
2018-08-17T13:21:39.115Z,8.43
2018-08-17T13:26:32.459Z,9.00
2018-08-17T13:31:25.776Z,5.97
2018-08-17T13:36:19.077Z,8.03
2018-08-17T13:41:12.346Z,5.65
2018-08-17T13:46:05.658Z,6.45
2018-08-17T13:50:59.004Z,6.72
2018-08-17T13:55:52.314Z,7.58
2018-08-17T14:00:45.543Z,6.53
2018-08-17T14:05:38.833Z,7.58
2018-08-17T14:10:32.097Z,7.35
2018-08-17T14:15:25.369Z,5.25
2018-08-17T14:20:18.685Z,7.22
2018-08-17T14:25:12.089Z,5.87
2018-08-17T14:30:14.998Z,7.00
2018-08-17T14:35:08.346Z,5.05
2018-08-17T14:40:01.639Z,5.17
2018-08-17T14:44:54.911Z,6.35
2018-08-17T14:49:48.211Z,7.12
2018-08-17T14:54:41.504Z,6.22
2018-08-17T14:59:34.797Z,5.30
2018-08-17T15:04:28.052Z,5.78
2018-08-17T15:09:21.312Z,5.30
2018-08-17T15:14:14.633Z,7.00
2018-08-17T15:19:07.968Z,5.78
2018-08-17T15:24:01.283Z,6.42
2018-08-17T15:28:54.571Z,6.08
2018-08-17T15:33:47.887Z,4.50
2018-08-17T15:38:41.167Z,3.67
2018-08-17T15:43:34.558Z,7.83
2018-08-17T15:48:28.462Z,6.53
2018-08-17T15:53:21.739Z,9.35
2018-08-17T15:58:14.989Z,6.25
2018-08-17T16:03:08.492Z,5.35
2018-08-17T16:08:02.835Z,7.03
2018-08-17T16:12:56.251Z,7.47
2018-08-17T16:17:49.533Z,5.62
2018-08-17T16:22:43.367Z,8.03
2018-08-17T16:27:36.610Z,7.20
2018-08-17T16:32:29.998Z,8.23
2018-08-17T16:37:23.385Z,4.13
2018-08-17T16:42:22.606Z,7.05
2018-08-17T16:47:15.878Z,5.72
2018-08-17T16:52:09.184Z,6.40
2018-08-17T16:57:02.473Z,7.95
2018-08-17T17:01:55.729Z,7.62
2018-08-17T17:06:49.010Z,4.97
2018-08-17T17:11:42.281Z,6.60
2018-08-17T17:16:41.584Z,5.12
2018-08-17T17:21:35.047Z,8.48
2018-08-17T17:26:28.282Z,5.40
2018-08-17T17:31:21.655Z,5.20
2018-08-17T17:36:14.961Z,3.83
2018-08-17T17:41:08.312Z,4.40
2018-08-17T17:46:01.573Z,7.40
2018-08-17T17:50:54.859Z,5.55
2018-08-17T17:55:48.873Z,4.92
2018-08-17T18:01:08.827Z,4.40
2018-08-17T18:06:05.861Z,5.40
2018-08-17T18:11:00.504Z,5.00
2018-08-17T18:15:53.795Z,4.25
2018-08-17T18:20:47.119Z,4.50
2018-08-17T18:25:40.415Z,4.12
2018-08-17T18:30:33.735Z,5.15
2018-08-17T18:35:27.109Z,3.47
2018-08-17T18:40:20.500Z,5.92
2018-08-17T18:45:13.830Z,6.15
2018-08-17T18:50:07.821Z,11.85
2018-08-17T18:55:01.275Z,4.90
2018-08-17T18:59:54.545Z,4.95
2018-08-17T19:04:47.900Z,7.58
2018-08-17T19:09:41.366Z,6.03
2018-08-17T19:14:39.994Z,5.80
2018-08-17T19:19:33.705Z,4.08
2018-08-17T19:24:27.949Z,5.62
2018-08-17T19:29:21.218Z,8.98
2018-08-17T19:34:16.266Z,5.17
2018-08-17T19:39:14.291Z,5.12
2018-08-17T19:44:07.605Z,8.43
2018-08-17T19:49:00.870Z,6.28
2018-08-17T19:53:54.299Z,5.67
2018-08-17T19:58:47.544Z,9.33
2018-08-17T20:03:40.897Z,5.58
2018-08-17T20:08:34.897Z,6.62
2018-08-17T20:13:28.240Z,6.42
2018-08-17T20:18:21.556Z,4.25
2018-08-17T20:23:14.919Z,4.83
2018-08-17T20:28:08.252Z,3.58
2018-08-17T20:33:01.679Z,4.70
2018-08-17T20:37:55.156Z,6.67
2018-08-17T20:42:48.849Z,5.63
2018-08-17T20:47:42.654Z,7.47
2018-08-17T20:52:46.862Z,8.80
2018-08-17T20:57:40.227Z,6.60
2018-08-17T21:02:33.552Z,6.50
2018-08-17T21:07:26.840Z,8.20
2018-08-17T21:12:20.191Z,8.43
2018-08-17T21:17:13.483Z,4.45
2018-08-17T21:22:07.148Z,4.12
2018-08-17T21:27:01.121Z,6.62
2018-08-17T21:31:54.455Z,5.53
2018-08-17T21:36:47.814Z,8.38
2018-08-17T21:41:42.937Z,4.58
2018-08-17T21:46:36.386Z,7.78
2018-08-17T21:51:33.062Z,5.42
2018-08-17T21:56:26.300Z,6.92
2018-08-17T22:01:19.664Z,8.25
2018-08-17T22:06:12.925Z,8.18
2018-08-17T22:11:06.250Z,7.55
2018-08-17T22:16:00.248Z,6.78
2018-08-17T22:20:53.585Z,7.00
2018-08-17T22:25:46.941Z,6.08
2018-08-17T22:30:40.226Z,8.40
2018-08-17T22:35:33.504Z,8.90
2018-08-17T22:40:27.110Z,7.45
2018-08-17T22:45:20.408Z,8.98
2018-08-17T22:50:13.714Z,9.73
2018-08-17T22:55:08.881Z,6.25
2018-08-17T23:00:18.355Z,13.93
2018-08-17T23:05:14.287Z,10.30
2018-08-17T23:10:14.063Z,10.43
2018-08-17T23:15:09.324Z,9.75
2018-08-17T23:20:03.369Z,9.60
2018-08-17T23:24:56.674Z,7.67
2018-08-17T23:29:49.956Z,7.37
2018-08-17T23:34:43.401Z,10.45
2018-08-17T23:39:36.682Z,9.55
2018-08-17T23:44:29.971Z,6.92
2018-08-17T23:49:23.482Z,10.60
2018-08-17T23:54:16.959Z,8.75
2018-08-17T23:59:10.193Z,8.70
